sensor_id;sensor_type;location;lat;lon;timestamp;noise_LAeq;noise_LA_min;noise_LA_max;noise_LA01;noise_LA95
66888;Laerm;67239;51.680;5.976;2023-12-20T00:01:08;62.37;37.85;81.67;;
66888;Laerm;67239;51.680;5.976;2023-12-20T00:03:35;40.36;36.83;51.61;;
66888;Laerm;67239;51.680;5.976;2023-12-20T00:06:09;57.17;36.79;74.74;;
66888;Laerm;67239;51.680;5.976;2023-12-20T00:08:37;39.47;36.25;45.59;;
66888;Laerm;67239;51.680;5.976;2023-12-20T00:11:04;39.67;36.84;43.79;;
66888;Laerm;67239;51.680;5.976;2023-12-20T00:13:31;56.71;36.86;72.74;;
66888;Laerm;67239;51.680;5.976;2023-12-20T00:15:58;57.45;35.62;75.42;;
66888;Laerm;67239;51.680;5.976;2023-12-20T00:18:26;60.87;36.20;77.68;;
66888;Laerm;67239;51.680;5.976;2023-12-20T00:20:53;61.43;36.25;78.92;;
66888;Laerm;67239;51.680;5.976;2023-12-20T00:23:20;39.98;36.82;56.22;;
66888;Laerm;67239;51.680;5.976;2023-12-20T00:25:47;41.27;37.15;58.96;;
66888;Laerm;67239;51.680;5.976;2023-12-20T00:28:14;40.12;35.74;58.31;;
66888;Laerm;67239;51.680;5.976;2023-12-20T00:30:41;39.86;35.64;52.82;;
66888;Laerm;67239;51.680;5.976;2023-12-20T00:33:08;54.28;36.68;69.78;;
66888;Laerm;67239;51.680;5.976;2023-12-20T00:35:35;40.27;36.66;50.74;;
66888;Laerm;67239;51.680;5.976;2023-12-20T00:38:03;40.36;36.52;52.11;;
66888;Laerm;67239;51.680;5.976;2023-12-20T00:40:32;39.55;36.61;46.29;;
66888;Laerm;67239;51.680;5.976;2023-12-20T00:43:00;40.20;37.01;52.35;;
66888;Laerm;67239;51.680;5.976;2023-12-20T00:45:27;39.68;36.81;47.90;;
66888;Laerm;67239;51.680;5.976;2023-12-20T00:47:54;60.10;37.40;79.74;;
66888;Laerm;67239;51.680;5.976;2023-12-20T00:50:21;40.61;37.22;57.60;;
66888;Laerm;67239;51.680;5.976;2023-12-20T00:52:49;40.19;36.90;50.67;;
66888;Laerm;67239;51.680;5.976;2023-12-20T00:55:16;40.41;36.88;50.39;;
66888;Laerm;67239;51.680;5.976;2023-12-20T00:57:44;42.40;37.64;59.74;;
66888;Laerm;67239;51.680;5.976;2023-12-20T01:00:11;42.51;37.70;57.23;;
66888;Laerm;67239;51.680;5.976;2023-12-20T01:02:40;42.45;36.96;57.36;;
66888;Laerm;67239;51.680;5.976;2023-12-20T01:05:07;64.28;37.58;82.73;;
66888;Laerm;67239;51.680;5.976;2023-12-20T01:07:36;39.66;36.02;50.81;;
66888;Laerm;67239;51.680;5.976;2023-12-20T01:10:03;39.23;36.18;51.27;;
66888;Laerm;67239;51.680;5.976;2023-12-20T01:12:30;55.66;36.94;72.55;;
66888;Laerm;67239;51.680;5.976;2023-12-20T01:14:57;40.01;36.45;52.00;;
66888;Laerm;67239;51.680;5.976;2023-12-20T01:17:25;39.92;36.49;51.39;;
66888;Laerm;67239;51.680;5.976;2023-12-20T01:19:52;40.06;36.66;50.19;;
66888;Laerm;67239;51.680;5.976;2023-12-20T01:22:19;39.72;35.98;50.06;;
66888;Laerm;67239;51.680;5.976;2023-12-20T01:24:46;41.92;36.00;59.59;;
66888;Laerm;67239;51.680;5.976;2023-12-20T01:27:14;40.06;36.47;58.87;;
66888;Laerm;67239;51.680;5.976;2023-12-20T01:29:41;38.33;35.88;42.19;;
66888;Laerm;67239;51.680;5.976;2023-12-20T01:32:08;39.67;36.45;50.80;;
66888;Laerm;67239;51.680;5.976;2023-12-20T01:34:35;41.67;35.76;56.47;;
66888;Laerm;67239;51.680;5.976;2023-12-20T01:37:03;41.68;36.22;60.76;;
66888;Laerm;67239;51.680;5.976;2023-12-20T01:39:31;41.33;36.60;56.26;;
66888;Laerm;67239;51.680;5.976;2023-12-20T01:41:58;40.60;36.41;55.71;;
66888;Laerm;67239;51.680;5.976;2023-12-20T01:44:25;59.74;36.22;78.32;;
66888;Laerm;67239;51.680;5.976;2023-12-20T01:46:52;43.20;36.13;59.37;;
66888;Laerm;67239;51.680;5.976;2023-12-20T01:49:19;41.53;36.12;60.13;;
66888;Laerm;67239;51.680;5.976;2023-12-20T01:51:48;38.70;35.93;44.99;;
66888;Laerm;67239;51.680;5.976;2023-12-20T01:54:16;39.38;37.06;45.66;;
66888;Laerm;67239;51.680;5.976;2023-12-20T01:56:43;39.29;36.73;44.32;;
66888;Laerm;67239;51.680;5.976;2023-12-20T01:59:10;40.47;35.87;55.63;;
66888;Laerm;67239;51.680;5.976;2023-12-20T02:01:38;41.44;36.41;59.90;;
66888;Laerm;67239;51.680;5.976;2023-12-20T02:04:05;41.13;36.23;55.09;;
66888;Laerm;67239;51.680;5.976;2023-12-20T02:06:33;41.01;36.65;54.53;;
66888;Laerm;67239;51.680;5.976;2023-12-20T02:09:01;39.61;35.91;52.03;;
66888;Laerm;67239;51.680;5.976;2023-12-20T02:11:28;39.36;36.31;51.78;;
66888;Laerm;67239;51.680;5.976;2023-12-20T02:13:55;39.37;35.93;49.86;;
66888;Laerm;67239;51.680;5.976;2023-12-20T02:16:22;40.80;36.41;58.12;;
66888;Laerm;67239;51.680;5.976;2023-12-20T02:18:50;40.70;36.63;55.24;;
66888;Laerm;67239;51.680;5.976;2023-12-20T02:21:17;58.22;37.41;75.53;;
66888;Laerm;67239;51.680;5.976;2023-12-20T02:23:44;44.40;37.27;65.11;;
66888;Laerm;67239;51.680;5.976;2023-12-20T02:26:12;44.63;37.58;64.39;;
66888;Laerm;67239;51.680;5.976;2023-12-20T02:28:40;60.01;37.29;75.52;;
66888;Laerm;67239;51.680;5.976;2023-12-20T02:31:07;56.61;37.01;74.65;;
66888;Laerm;67239;51.680;5.976;2023-12-20T02:33:35;42.38;37.71;59.50;;
66888;Laerm;67239;51.680;5.976;2023-12-20T02:36:02;58.11;38.11;77.25;;
66888;Laerm;67239;51.680;5.976;2023-12-20T02:38:29;40.51;36.63;52.19;;
66888;Laerm;67239;51.680;5.976;2023-12-20T02:40:56;40.98;37.23;51.74;;
66888;Laerm;67239;51.680;5.976;2023-12-20T02:43:23;41.51;37.31;58.63;;
66888;Laerm;67239;51.680;5.976;2023-12-20T02:45:50;40.89;37.16;57.78;;
66888;Laerm;67239;51.680;5.976;2023-12-20T02:48:18;42.87;37.76;62.57;;
66888;Laerm;67239;51.680;5.976;2023-12-20T02:50:47;42.18;37.91;58.90;;
66888;Laerm;67239;51.680;5.976;2023-12-20T02:53:15;41.06;36.94;57.50;;
66888;Laerm;67239;51.680;5.976;2023-12-20T02:55:42;40.03;36.88;49.33;;
66888;Laerm;67239;51.680;5.976;2023-12-20T02:58:09;41.68;36.57;54.22;;
66888;Laerm;67239;51.680;5.976;2023-12-20T03:00:36;61.08;37.14;78.46;;
66888;Laerm;67239;51.680;5.976;2023-12-20T03:03:04;59.36;37.61;78.77;;
66888;Laerm;67239;51.680;5.976;2023-12-20T03:05:32;43.46;36.96;61.89;;
66888;Laerm;67239;51.680;5.976;2023-12-20T03:08:00;42.98;36.64;59.63;;
66888;Laerm;67239;51.680;5.976;2023-12-20T03:10:27;43.06;37.21;63.25;;
66888;Laerm;67239;51.680;5.976;2023-12-20T03:12:54;40.68;36.95;55.49;;
66888;Laerm;67239;51.680;5.976;2023-12-20T03:15:21;41.96;37.48;61.28;;
66888;Laerm;67239;51.680;5.976;2023-12-20T03:17:48;43.30;38.06;60.65;;
66888;Laerm;67239;51.680;5.976;2023-12-20T03:20:16;43.47;37.42;61.55;;
66888;Laerm;67239;51.680;5.976;2023-12-20T03:22:43;43.50;37.77;62.57;;
66888;Laerm;67239;51.680;5.976;2023-12-20T03:25:10;42.69;38.07;54.70;;
66888;Laerm;67239;51.680;5.976;2023-12-20T03:27:37;49.02;39.58;65.11;;
66888;Laerm;67239;51.680;5.976;2023-12-20T03:30:06;44.00;40.27;52.10;;
66888;Laerm;67239;51.680;5.976;2023-12-20T03:32:33;61.62;38.75;81.68;;
66888;Laerm;67239;51.680;5.976;2023-12-20T03:35:00;41.96;38.33;51.47;;
66888;Laerm;67239;51.680;5.976;2023-12-20T03:37:28;42.52;38.75;50.37;;
66888;Laerm;67239;51.680;5.976;2023-12-20T03:39:55;62.97;38.45;80.94;;
66888;Laerm;67239;51.680;5.976;2023-12-20T03:42:22;43.29;38.73;60.17;;
66888;Laerm;67239;51.680;5.976;2023-12-20T03:44:49;43.03;38.78;51.96;;
66888;Laerm;67239;51.680;5.976;2023-12-20T03:47:16;42.85;39.14;50.51;;
66888;Laerm;67239;51.680;5.976;2023-12-20T03:49:43;67.61;38.41;87.20;;
66888;Laerm;67239;51.680;5.976;2023-12-20T03:52:10;58.86;38.44;75.55;;
66888;Laerm;67239;51.680;5.976;2023-12-20T03:54:38;44.76;40.01;56.34;;
66888;Laerm;67239;51.680;5.976;2023-12-20T03:57:05;58.45;40.26;74.70;;
66888;Laerm;67239;51.680;5.976;2023-12-20T03:59:37;42.76;38.87;66.11;;
66888;Laerm;67239;51.680;5.976;2023-12-20T04:02:04;43.08;39.00;55.16;;
66888;Laerm;67239;51.680;5.976;2023-12-20T04:04:31;55.88;40.30;71.67;;
66888;Laerm;67239;51.680;5.976;2023-12-20T04:06:59;44.45;40.32;53.81;;
66888;Laerm;67239;51.680;5.976;2023-12-20T04:09:26;44.41;40.67;55.41;;
66888;Laerm;67239;51.680;5.976;2023-12-20T04:11:53;64.80;40.87;79.21;;
66888;Laerm;67239;51.680;5.976;2023-12-20T04:14:20;61.84;40.64;78.79;;
66888;Laerm;67239;51.680;5.976;2023-12-20T04:16:47;46.22;41.08;66.72;;
66888;Laerm;67239;51.680;5.976;2023-12-20T04:19:14;62.21;40.30;79.41;;
66888;Laerm;67239;51.680;5.976;2023-12-20T04:21:42;58.88;40.92;77.50;;
66888;Laerm;67239;51.680;5.976;2023-12-20T04:24:09;61.32;41.97;75.36;;
66888;Laerm;67239;51.680;5.976;2023-12-20T04:26:36;65.24;42.58;80.86;;
66888;Laerm;67239;51.680;5.976;2023-12-20T04:29:03;66.89;42.12;82.34;;
66888;Laerm;67239;51.680;5.976;2023-12-20T04:31:30;62.27;41.83;77.85;;
66888;Laerm;67239;51.680;5.976;2023-12-20T04:33:57;67.41;42.90;85.70;;
66888;Laerm;67239;51.680;5.976;2023-12-20T04:36:24;63.50;42.26;83.09;;
66888;Laerm;67239;51.680;5.976;2023-12-20T04:38:53;65.70;43.37;77.32;;
66888;Laerm;67239;51.680;5.976;2023-12-20T04:41:21;68.20;41.76;85.08;;
66888;Laerm;67239;51.680;5.976;2023-12-20T04:43:48;67.00;42.55;82.48;;
66888;Laerm;67239;51.680;5.976;2023-12-20T04:46:15;67.25;42.15;82.59;;
66888;Laerm;67239;51.680;5.976;2023-12-20T04:48:42;62.15;42.71;77.44;;
66888;Laerm;67239;51.680;5.976;2023-12-20T04:51:09;68.20;44.35;81.92;;
66888;Laerm;67239;51.680;5.976;2023-12-20T04:53:36;62.25;43.31;78.27;;
66888;Laerm;67239;51.680;5.976;2023-12-20T04:56:03;66.76;43.22;78.25;;
66888;Laerm;67239;51.680;5.976;2023-12-20T04:58:31;67.43;41.99;83.54;;
66888;Laerm;67239;51.680;5.976;2023-12-20T05:00:58;65.60;44.25;81.63;;
66888;Laerm;67239;51.680;5.976;2023-12-20T05:03:25;71.23;47.10;84.45;;
66888;Laerm;67239;51.680;5.976;2023-12-20T05:05:53;68.08;47.07;81.79;;
66888;Laerm;67239;51.680;5.976;2023-12-20T05:08:20;69.99;43.07;84.83;;
66888;Laerm;67239;51.680;5.976;2023-12-20T05:10:47;66.23;43.93;79.17;;
66888;Laerm;67239;51.680;5.976;2023-12-20T05:13:15;60.15;43.59;77.11;;
66888;Laerm;67239;51.680;5.976;2023-12-20T05:15:42;68.16;44.44;80.15;;
66888;Laerm;67239;51.680;5.976;2023-12-20T05:18:09;67.34;45.51;84.11;;
66888;Laerm;67239;51.680;5.976;2023-12-20T05:20:36;61.30;43.76;82.28;;
66888;Laerm;67239;51.680;5.976;2023-12-20T05:23:06;66.69;44.06;80.65;;
66888;Laerm;67239;51.680;5.976;2023-12-20T05:25:33;67.71;43.41;83.71;;
66888;Laerm;67239;51.680;5.976;2023-12-20T05:28:00;67.94;42.92;80.84;;
66888;Laerm;67239;51.680;5.976;2023-12-20T05:30:27;67.05;44.17;81.02;;
66888;Laerm;67239;51.680;5.976;2023-12-20T05:32:54;69.36;46.28;80.92;;
66888;Laerm;67239;51.680;5.976;2023-12-20T05:35:22;67.99;45.45;80.84;;
66888;Laerm;67239;51.680;5.976;2023-12-20T05:37:50;60.94;45.09;76.62;;
66888;Laerm;67239;51.680;5.976;2023-12-20T05:40:17;63.49;46.23;79.01;;
66888;Laerm;67239;51.680;5.976;2023-12-20T05:42:49;67.05;47.11;83.23;;
66888;Laerm;67239;51.680;5.976;2023-12-20T05:45:16;66.26;46.47;79.53;;
66888;Laerm;67239;51.680;5.976;2023-12-20T05:47:43;68.25;46.72;81.97;;
66888;Laerm;67239;51.680;5.976;2023-12-20T05:50:11;68.14;46.68;82.93;;
66888;Laerm;67239;51.680;5.976;2023-12-20T05:52:38;69.14;45.87;81.24;;
66888;Laerm;67239;51.680;5.976;2023-12-20T05:55:08;71.22;48.03;83.65;;
66888;Laerm;67239;51.680;5.976;2023-12-20T05:57:38;68.19;48.36;79.26;;
66888;Laerm;67239;51.680;5.976;2023-12-20T06:00:06;67.14;47.92;82.53;;
66888;Laerm;67239;51.680;5.976;2023-12-20T06:02:41;69.21;46.39;81.02;;
66888;Laerm;67239;51.680;5.976;2023-12-20T06:05:11;68.48;46.23;84.97;;
66888;Laerm;67239;51.680;5.976;2023-12-20T06:07:39;69.31;48.95;82.98;;
66888;Laerm;67239;51.680;5.976;2023-12-20T06:10:06;68.67;48.25;83.54;;
66888;Laerm;67239;51.680;5.976;2023-12-20T06:12:34;68.10;46.18;80.13;;
66888;Laerm;67239;51.680;5.976;2023-12-20T06:15:05;67.01;46.98;81.24;;
66888;Laerm;67239;51.680;5.976;2023-12-20T06:17:33;65.35;46.02;78.61;;
66888;Laerm;67239;51.680;5.976;2023-12-20T06:20:02;70.44;47.29;83.40;;
66888;Laerm;67239;51.680;5.976;2023-12-20T06:22:35;65.88;46.42;78.76;;
66888;Laerm;67239;51.680;5.976;2023-12-20T06:25:04;67.50;46.31;81.65;;
66888;Laerm;67239;51.680;5.976;2023-12-20T06:27:31;66.62;44.66;81.90;;
66888;Laerm;67239;51.680;5.976;2023-12-20T06:29:59;67.36;47.25;82.76;;
66888;Laerm;67239;51.680;5.976;2023-12-20T06:32:26;70.22;46.91;83.54;;
66888;Laerm;67239;51.680;5.976;2023-12-20T06:34:55;69.61;49.64;80.62;;
66888;Laerm;67239;51.680;5.976;2023-12-20T06:37:23;67.50;48.02;83.61;;
66888;Laerm;67239;51.680;5.976;2023-12-20T06:39:50;66.40;47.22;82.37;;
66888;Laerm;67239;51.680;5.976;2023-12-20T06:42:18;69.44;47.66;82.17;;
66888;Laerm;67239;51.680;5.976;2023-12-20T06:44:45;69.89;49.68;81.45;;
66888;Laerm;67239;51.680;5.976;2023-12-20T06:47:13;69.08;50.25;79.00;;
66888;Laerm;67239;51.680;5.976;2023-12-20T06:49:41;71.33;52.13;82.65;;
66888;Laerm;67239;51.680;5.976;2023-12-20T06:52:08;70.33;49.77;83.33;;
66888;Laerm;67239;51.680;5.976;2023-12-20T06:54:35;69.00;49.84;81.06;;
66888;Laerm;67239;51.680;5.976;2023-12-20T06:57:03;68.98;50.35;82.18;;
66888;Laerm;67239;51.680;5.976;2023-12-20T06:59:31;68.25;49.80;78.44;;
66888;Laerm;67239;51.680;5.976;2023-12-20T07:01:58;69.34;50.61;79.90;;
66888;Laerm;67239;51.680;5.976;2023-12-20T07:04:25;71.14;50.47;82.65;;
66888;Laerm;67239;51.680;5.976;2023-12-20T07:06:53;69.98;48.92;86.48;;
66888;Laerm;67239;51.680;5.976;2023-12-20T07:09:23;68.16;47.03;79.70;;
66888;Laerm;67239;51.680;5.976;2023-12-20T07:11:51;68.93;47.43;80.97;;
66888;Laerm;67239;51.680;5.976;2023-12-20T07:14:18;73.32;49.69;88.88;;
66888;Laerm;67239;51.680;5.976;2023-12-20T07:16:45;70.40;50.96;84.33;;
66888;Laerm;67239;51.680;5.976;2023-12-20T07:19:12;70.53;50.46;80.78;;
66888;Laerm;67239;51.680;5.976;2023-12-20T07:21:40;66.79;50.98;80.79;;
66888;Laerm;67239;51.680;5.976;2023-12-20T07:24:07;71.86;50.85;85.70;;
66888;Laerm;67239;51.680;5.976;2023-12-20T07:26:35;68.52;50.79;81.04;;
66888;Laerm;67239;51.680;5.976;2023-12-20T07:29:02;70.04;49.75;80.56;;
66888;Laerm;67239;51.680;5.976;2023-12-20T07:31:30;68.89;48.69;81.77;;
66888;Laerm;67239;51.680;5.976;2023-12-20T07:33:58;71.96;51.72;87.30;;
66888;Laerm;67239;51.680;5.976;2023-12-20T07:36:25;71.60;50.69;85.30;;
66888;Laerm;67239;51.680;5.976;2023-12-20T07:38:52;70.03;48.37;82.79;;
66888;Laerm;67239;51.680;5.976;2023-12-20T07:41:19;68.71;49.04;80.24;;
66888;Laerm;67239;51.680;5.976;2023-12-20T07:43:48;69.35;49.65;80.50;;
66888;Laerm;67239;51.680;5.976;2023-12-20T07:46:16;71.94;51.74;85.14;;
66888;Laerm;67239;51.680;5.976;2023-12-20T07:48:43;69.48;50.80;83.39;;
66888;Laerm;67239;51.680;5.976;2023-12-20T07:51:12;70.11;52.49;82.73;;
66888;Laerm;67239;51.680;5.976;2023-12-20T07:53:39;69.66;49.30;83.17;;
66888;Laerm;67239;51.680;5.976;2023-12-20T07:56:19;70.33;52.99;84.81;;
66888;Laerm;67239;51.680;5.976;2023-12-20T07:58:46;69.15;50.08;82.05;;
66888;Laerm;67239;51.680;5.976;2023-12-20T08:01:20;70.11;52.28;83.12;;
66888;Laerm;67239;51.680;5.976;2023-12-20T08:03:49;67.71;49.71;80.75;;
66888;Laerm;67239;51.680;5.976;2023-12-20T08:06:17;67.40;49.25;79.85;;
66888;Laerm;67239;51.680;5.976;2023-12-20T08:08:45;66.91;48.99;80.29;;
66888;Laerm;67239;51.680;5.976;2023-12-20T08:11:19;69.08;52.28;82.47;;
66888;Laerm;67239;51.680;5.976;2023-12-20T08:13:46;67.80;49.89;78.99;;
66888;Laerm;67239;51.680;5.976;2023-12-20T08:16:13;69.60;49.25;84.69;;
66888;Laerm;67239;51.680;5.976;2023-12-20T08:18:43;68.76;50.83;79.39;;
66888;Laerm;67239;51.680;5.976;2023-12-20T08:21:10;70.41;57.36;82.99;;
66888;Laerm;67239;51.680;5.976;2023-12-20T08:23:38;67.77;48.66;82.05;;
66888;Laerm;67239;51.680;5.976;2023-12-20T08:26:07;69.55;52.37;80.62;;
66888;Laerm;67239;51.680;5.976;2023-12-20T08:28:34;71.32;48.77;83.74;;
66888;Laerm;67239;51.680;5.976;2023-12-20T08:31:03;68.55;50.02;80.48;;
66888;Laerm;67239;51.680;5.976;2023-12-20T08:33:31;68.22;46.75;79.12;;
66888;Laerm;67239;51.680;5.976;2023-12-20T08:35:58;68.86;51.12;78.13;;
66888;Laerm;67239;51.680;5.976;2023-12-20T08:38:25;65.81;48.36;77.99;;
66888;Laerm;67239;51.680;5.976;2023-12-20T08:40:52;71.00;53.79;82.34;;
66888;Laerm;67239;51.680;5.976;2023-12-20T08:43:19;67.87;48.49;78.11;;
66888;Laerm;67239;51.680;5.976;2023-12-20T08:45:46;66.06;48.33;77.21;;
66888;Laerm;67239;51.680;5.976;2023-12-20T08:48:13;68.53;50.64;80.81;;
66888;Laerm;67239;51.680;5.976;2023-12-20T08:50:43;69.89;50.98;81.08;;
66888;Laerm;67239;51.680;5.976;2023-12-20T08:53:13;69.48;47.40;85.22;;
66888;Laerm;67239;51.680;5.976;2023-12-20T08:55:43;68.90;47.86;84.54;;
66888;Laerm;67239;51.680;5.976;2023-12-20T08:58:10;69.32;48.91;80.94;;
66888;Laerm;67239;51.680;5.976;2023-12-20T09:00:37;64.61;46.62;75.22;;
66888;Laerm;67239;51.680;5.976;2023-12-20T09:03:05;69.38;50.25;82.71;;
66888;Laerm;67239;51.680;5.976;2023-12-20T09:05:32;67.57;49.18;80.03;;
66888;Laerm;67239;51.680;5.976;2023-12-20T09:07:59;68.91;47.43;78.03;;
66888;Laerm;67239;51.680;5.976;2023-12-20T09:10:26;66.68;46.78;77.95;;
66888;Laerm;67239;51.680;5.976;2023-12-20T09:12:54;70.25;48.69;81.23;;
66888;Laerm;67239;51.680;5.976;2023-12-20T09:15:25;68.26;49.10;84.68;;
66888;Laerm;67239;51.680;5.976;2023-12-20T09:17:53;67.48;49.73;81.80;;
66888;Laerm;67239;51.680;5.976;2023-12-20T09:20:20;66.03;47.63;80.42;;
66888;Laerm;67239;51.680;5.976;2023-12-20T09:22:50;68.62;49.19;80.96;;
66888;Laerm;67239;51.680;5.976;2023-12-20T09:25:17;68.23;48.38;82.22;;
66888;Laerm;67239;51.680;5.976;2023-12-20T09:27:45;66.51;47.12;79.91;;
66888;Laerm;67239;51.680;5.976;2023-12-20T09:30:12;68.54;52.33;80.28;;
66888;Laerm;67239;51.680;5.976;2023-12-20T09:32:51;70.08;51.96;82.28;;
66888;Laerm;67239;51.680;5.976;2023-12-20T09:35:21;66.79;49.30;79.28;;
66888;Laerm;67239;51.680;5.976;2023-12-20T09:37:50;67.57;51.23;78.51;;
66888;Laerm;67239;51.680;5.976;2023-12-20T09:40:19;63.75;49.74;78.83;;
66888;Laerm;67239;51.680;5.976;2023-12-20T09:43:08;67.32;47.72;80.86;;
66888;Laerm;67239;51.680;5.976;2023-12-20T09:45:49;68.74;47.83;82.27;;
66888;Laerm;67239;51.680;5.976;2023-12-20T09:48:24;68.55;46.98;82.56;;
66888;Laerm;67239;51.680;5.976;2023-12-20T09:50:56;63.71;46.89;77.76;;
66888;Laerm;67239;51.680;5.976;2023-12-20T09:53:25;68.80;49.26;80.61;;
66888;Laerm;67239;51.680;5.976;2023-12-20T09:55:59;70.62;50.43;87.05;;
66888;Laerm;67239;51.680;5.976;2023-12-20T09:58:29;68.17;49.17;78.27;;
66888;Laerm;67239;51.680;5.976;2023-12-20T10:00:57;71.32;49.80;81.46;;
66888;Laerm;67239;51.680;5.976;2023-12-20T10:03:25;69.03;47.29;83.55;;
66888;Laerm;67239;51.680;5.976;2023-12-20T10:05:57;68.89;47.29;81.58;;
66888;Laerm;67239;51.680;5.976;2023-12-20T10:08:25;67.78;48.60;80.70;;
66888;Laerm;67239;51.680;5.976;2023-12-20T10:10:52;70.29;48.64;84.23;;
66888;Laerm;67239;51.680;5.976;2023-12-20T10:13:19;68.52;48.40;80.88;;
66888;Laerm;67239;51.680;5.976;2023-12-20T10:15:46;66.63;48.88;78.22;;
66888;Laerm;67239;51.680;5.976;2023-12-20T10:18:15;74.43;52.29;88.60;;
66888;Laerm;67239;51.680;5.976;2023-12-20T10:20:42;69.24;48.31;82.50;;
66888;Laerm;67239;51.680;5.976;2023-12-20T10:23:10;68.70;49.71;79.27;;
66888;Laerm;67239;51.680;5.976;2023-12-20T10:25:38;70.11;50.93;81.80;;
66888;Laerm;67239;51.680;5.976;2023-12-20T10:28:16;69.21;48.98;84.13;;
66888;Laerm;67239;51.680;5.976;2023-12-20T10:30:48;68.35;48.67;79.05;;
66888;Laerm;67239;51.680;5.976;2023-12-20T10:33:31;70.18;49.82;80.29;;
66888;Laerm;67239;51.680;5.976;2023-12-20T10:36:05;70.67;50.89;83.67;;
66888;Laerm;67239;51.680;5.976;2023-12-20T10:38:37;70.67;51.26;81.04;;
66888;Laerm;67239;51.680;5.976;2023-12-20T10:41:09;71.77;53.82;80.02;;
66888;Laerm;67239;51.680;5.976;2023-12-20T10:43:40;68.88;49.46;82.38;;
66888;Laerm;67239;51.680;5.976;2023-12-20T10:46:11;68.86;48.86;79.88;;
66888;Laerm;67239;51.680;5.976;2023-12-20T10:48:39;67.10;49.03;79.58;;
66888;Laerm;67239;51.680;5.976;2023-12-20T10:51:08;68.52;48.52;80.73;;
66888;Laerm;67239;51.680;5.976;2023-12-20T10:53:39;70.65;53.53;80.21;;
66888;Laerm;67239;51.680;5.976;2023-12-20T10:56:12;70.56;47.89;84.12;;
66888;Laerm;67239;51.680;5.976;2023-12-20T10:58:48;69.66;48.85;82.56;;
66888;Laerm;67239;51.680;5.976;2023-12-20T11:01:18;68.27;48.85;80.48;;
66888;Laerm;67239;51.680;5.976;2023-12-20T11:03:53;68.09;47.59;79.00;;
66888;Laerm;67239;51.680;5.976;2023-12-20T11:06:49;68.18;47.98;79.96;;
66888;Laerm;67239;51.680;5.976;2023-12-20T11:09:26;72.35;49.12;89.91;;
66888;Laerm;67239;51.680;5.976;2023-12-20T11:12:06;67.15;47.95;81.26;;
66888;Laerm;67239;51.680;5.976;2023-12-20T11:14:49;71.29;48.71;89.39;;
66888;Laerm;67239;51.680;5.976;2023-12-20T11:17:17;65.48;49.03;84.42;;
66888;Laerm;67239;51.680;5.976;2023-12-20T11:22:27;71.02;47.96;81.29;;
66888;Laerm;67239;51.680;5.976;2023-12-20T11:25:02;67.04;47.33;79.47;;
66888;Laerm;67239;51.680;5.976;2023-12-20T11:27:31;70.18;49.75;81.03;;
66888;Laerm;67239;51.680;5.976;2023-12-20T11:29:59;67.63;46.55;79.44;;
66888;Laerm;67239;51.680;5.976;2023-12-20T11:32:28;70.88;46.99;81.18;;
66888;Laerm;67239;51.680;5.976;2023-12-20T11:34:59;71.01;49.33;82.39;;
66888;Laerm;67239;51.680;5.976;2023-12-20T11:37:35;68.45;49.03;79.46;;
66888;Laerm;67239;51.680;5.976;2023-12-20T11:40:07;68.36;47.88;80.50;;
66888;Laerm;67239;51.680;5.976;2023-12-20T11:42:49;66.56;45.46;82.53;;
66888;Laerm;67239;51.680;5.976;2023-12-20T11:45:24;68.94;46.99;81.09;;
66888;Laerm;67239;51.680;5.976;2023-12-20T11:47:56;67.72;45.94;79.43;;
66888;Laerm;67239;51.680;5.976;2023-12-20T11:50:27;67.91;46.97;83.61;;
66888;Laerm;67239;51.680;5.976;2023-12-20T11:52:57;68.51;45.78;80.31;;
66888;Laerm;67239;51.680;5.976;2023-12-20T11:55:25;70.79;46.75;82.37;;
66888;Laerm;67239;51.680;5.976;2023-12-20T11:57:52;69.63;46.57;82.50;;
66888;Laerm;67239;51.680;5.976;2023-12-20T12:00:22;67.79;47.01;80.64;;
66888;Laerm;67239;51.680;5.976;2023-12-20T12:03:00;71.48;45.17;84.87;;
66888;Laerm;67239;51.680;5.976;2023-12-20T12:05:31;69.92;50.67;83.75;;
66888;Laerm;67239;51.680;5.976;2023-12-20T12:07:58;67.93;48.33;83.81;;
66888;Laerm;67239;51.680;5.976;2023-12-20T12:10:25;69.85;48.41;80.73;;
66888;Laerm;67239;51.680;5.976;2023-12-20T12:12:53;68.95;46.04;82.80;;
66888;Laerm;67239;51.680;5.976;2023-12-20T12:15:20;68.38;48.04;79.20;;
66888;Laerm;67239;51.680;5.976;2023-12-20T12:17:55;68.71;47.94;82.25;;
66888;Laerm;67239;51.680;5.976;2023-12-20T12:20:23;68.61;48.80;79.46;;
66888;Laerm;67239;51.680;5.976;2023-12-20T12:22:58;71.12;47.22;84.38;;
66888;Laerm;67239;51.680;5.976;2023-12-20T12:25:26;68.51;47.23;78.99;;
66888;Laerm;67239;51.680;5.976;2023-12-20T12:27:56;69.22;49.09;81.32;;
66888;Laerm;67239;51.680;5.976;2023-12-20T12:30:24;69.91;48.80;82.72;;
66888;Laerm;67239;51.680;5.976;2023-12-20T12:32:56;70.38;49.87;83.09;;
66888;Laerm;67239;51.680;5.976;2023-12-20T12:35:24;68.50;47.15;80.39;;
66888;Laerm;67239;51.680;5.976;2023-12-20T12:37:52;68.22;47.66;80.27;;
66888;Laerm;67239;51.680;5.976;2023-12-20T12:40:19;68.97;50.51;79.92;;
66888;Laerm;67239;51.680;5.976;2023-12-20T12:42:47;69.64;50.77;81.95;;
66888;Laerm;67239;51.680;5.976;2023-12-20T12:45:14;70.36;50.17;86.90;;
66888;Laerm;67239;51.680;5.976;2023-12-20T12:47:42;69.09;50.51;78.72;;
66888;Laerm;67239;51.680;5.976;2023-12-20T12:50:10;71.15;54.31;81.88;;
66888;Laerm;67239;51.680;5.976;2023-12-20T12:52:37;71.95;47.96;85.32;;
66888;Laerm;67239;51.680;5.976;2023-12-20T12:55:05;70.31;47.35;82.38;;
66888;Laerm;67239;51.680;5.976;2023-12-20T12:57:33;70.82;48.38;81.38;;
66888;Laerm;67239;51.680;5.976;2023-12-20T13:00:01;70.17;49.46;82.48;;
66888;Laerm;67239;51.680;5.976;2023-12-20T13:02:29;68.88;48.83;82.12;;
66888;Laerm;67239;51.680;5.976;2023-12-20T13:04:57;71.05;47.41;82.32;;
66888;Laerm;67239;51.680;5.976;2023-12-20T13:07:24;71.53;49.42;84.06;;
66888;Laerm;67239;51.680;5.976;2023-12-20T13:09:52;71.17;49.75;83.82;;
66888;Laerm;67239;51.680;5.976;2023-12-20T13:12:19;70.20;50.91;79.68;;
66888;Laerm;67239;51.680;5.976;2023-12-20T13:14:46;68.76;47.98;82.20;;
66888;Laerm;67239;51.680;5.976;2023-12-20T13:17:14;68.63;49.52;82.62;;
66888;Laerm;67239;51.680;5.976;2023-12-20T13:19:42;70.27;47.55;85.21;;
66888;Laerm;67239;51.680;5.976;2023-12-20T13:22:09;70.73;48.46;80.79;;
66888;Laerm;67239;51.680;5.976;2023-12-20T13:24:37;70.95;50.42;85.66;;
66888;Laerm;67239;51.680;5.976;2023-12-20T13:27:04;71.40;52.20;81.60;;
66888;Laerm;67239;51.680;5.976;2023-12-20T13:29:31;69.20;47.48;83.81;;
66888;Laerm;67239;51.680;5.976;2023-12-20T13:31:59;69.77;47.23;85.30;;
66888;Laerm;67239;51.680;5.976;2023-12-20T13:34:26;70.43;51.16;82.84;;
66888;Laerm;67239;51.680;5.976;2023-12-20T13:36:53;68.55;47.88;80.83;;
66888;Laerm;67239;51.680;5.976;2023-12-20T13:39:20;72.24;49.18;84.65;;
66888;Laerm;67239;51.680;5.976;2023-12-20T13:41:48;66.75;48.00;81.02;;
66888;Laerm;67239;51.680;5.976;2023-12-20T13:44:16;67.74;49.35;80.42;;
66888;Laerm;67239;51.680;5.976;2023-12-20T13:46:43;66.78;48.02;80.86;;
66888;Laerm;67239;51.680;5.976;2023-12-20T13:49:10;68.73;49.87;80.95;;
66888;Laerm;67239;51.680;5.976;2023-12-20T13:51:37;69.50;50.64;84.01;;
66888;Laerm;67239;51.680;5.976;2023-12-20T13:54:05;69.86;52.19;83.47;;